createdAt,value
2022-08-26T00:00:17.708Z,11.80
2022-08-26T00:03:27.825Z,15.95
2022-08-26T00:06:42.559Z,15.32
2022-08-26T00:09:56.364Z,13.20
2022-08-26T00:13:06.891Z,13.60
2022-08-26T00:16:18.957Z,9.35
2022-08-26T00:19:29.546Z,19.67
2022-08-26T00:22:41.520Z,10.35
2022-08-26T00:25:52.080Z,11.85
2022-08-26T00:29:02.679Z,16.27
2022-08-26T00:32:13.175Z,14.13
2022-08-26T00:35:25.673Z,14.43
2022-08-26T00:38:39.873Z,13.60
2022-08-26T00:41:50.484Z,19.13
2022-08-26T00:45:00.977Z,12.57
2022-08-26T00:48:12.416Z,15.57
2022-08-26T00:51:29.713Z,11.88
2022-08-26T00:54:46.968Z,12.90
2022-08-26T00:57:57.672Z,11.45
2022-08-26T01:01:08.292Z,17.60
2022-08-26T01:04:22.453Z,9.15
2022-08-26T01:07:35.352Z,11.55
2022-08-26T01:10:47.267Z,8.85
2022-08-26T01:14:02.337Z,16.55
2022-08-26T01:17:13.296Z,13.95
2022-08-26T01:20:30.062Z,10.70
2022-08-26T01:23:45.791Z,12.77
2022-08-26T01:26:59.544Z,13.85
2022-08-26T01:30:11.875Z,15.38
2022-08-26T01:33:25.245Z,10.73
2022-08-26T01:36:35.758Z,11.63
2022-08-26T01:39:51.030Z,14.90
2022-08-26T01:43:03.311Z,14.55
2022-08-26T01:46:15.553Z,10.32
2022-08-26T01:49:28.267Z,14.60
2022-08-26T01:52:44.408Z,14.20
2022-08-26T01:56:00.507Z,16.00
2022-08-26T01:59:15.539Z,11.52
2022-08-26T02:02:28.564Z,15.75
2022-08-26T02:05:38.983Z,12.85
2022-08-26T02:08:51.789Z,14.48
2022-08-26T02:12:03.666Z,16.13
2022-08-26T02:15:14.335Z,12.98
2022-08-26T02:18:25.838Z,13.70
2022-08-26T02:21:36.743Z,15.80
2022-08-26T02:24:51.194Z,17.25
2022-08-26T02:28:03.991Z,13.82
2022-08-26T02:31:15.022Z,12.48
2022-08-26T02:34:31.347Z,14.38
2022-08-26T02:37:41.987Z,15.73
2022-08-26T02:40:52.661Z,14.23
2022-08-26T02:44:06.605Z,11.95
2022-08-26T02:47:17.571Z,17.52
2022-08-26T02:50:28.845Z,13.40
2022-08-26T02:53:39.025Z,16.08
2022-08-26T02:56:50.704Z,11.32
2022-08-26T03:00:02.661Z,8.85
2022-08-26T03:03:13.050Z,24.52
2022-08-26T03:06:24.405Z,17.92
2022-08-26T03:09:34.744Z,15.75
2022-08-26T03:12:47.438Z,14.32
2022-08-26T03:16:01.840Z,14.38
2022-08-26T03:19:12.372Z,16.98
2022-08-26T03:22:22.768Z,19.48
2022-08-26T03:25:33.258Z,16.40
2022-08-26T03:28:57.598Z,16.02
2022-08-26T03:32:10.760Z,16.20
2022-08-26T03:35:22.394Z,24.27
2022-08-26T03:38:33.397Z,18.33
2022-08-26T03:41:45.089Z,15.15
2022-08-26T03:44:55.120Z,18.75
2022-08-26T03:48:06.782Z,17.42
2022-08-26T03:51:20.002Z,13.50
2022-08-26T03:54:31.707Z,12.68
2022-08-26T03:57:42.391Z,17.75
2022-08-26T04:00:55.588Z,13.30
2022-08-26T04:04:07.758Z,15.23
2022-08-26T04:07:18.246Z,16.45
2022-08-26T04:10:29.540Z,16.77
2022-08-26T04:13:40.408Z,19.98
2022-08-26T04:16:51.486Z,18.35
2022-08-26T04:20:04.949Z,16.27
2022-08-26T04:23:18.124Z,19.75
2022-08-26T04:26:28.831Z,15.73
2022-08-26T04:29:40.655Z,19.45
2022-08-26T04:32:51.328Z,19.40
2022-08-26T04:36:05.450Z,16.80
2022-08-26T04:39:16.801Z,17.67
2022-08-26T04:42:29.873Z,18.60
2022-08-26T04:45:42.632Z,15.45
2022-08-26T04:48:54.434Z,15.50
2022-08-26T04:52:06.559Z,18.52
2022-08-26T04:55:18.538Z,18.05
2022-08-26T04:58:29.935Z,16.33
2022-08-26T05:01:43.948Z,13.00
2022-08-26T05:04:54.936Z,19.70
2022-08-26T05:08:06.514Z,19.33
2022-08-26T05:11:17.066Z,14.13
2022-08-26T05:14:29.285Z,18.15
2022-08-26T05:17:39.929Z,19.17
2022-08-26T05:20:54.557Z,19.15
2022-08-26T05:24:07.464Z,18.90
2022-08-26T05:27:17.955Z,20.52
2022-08-26T05:30:31.363Z,19.45
2022-08-26T05:33:41.716Z,14.55
2022-08-26T05:36:53.064Z,22.55
2022-08-26T05:40:08.087Z,29.98
2022-08-26T05:43:20.149Z,17.67
2022-08-26T05:46:31.708Z,19.27
2022-08-26T05:49:43.736Z,16.58
2022-08-26T05:53:01.783Z,16.77
2022-08-26T05:56:14.958Z,26.20
2022-08-26T05:59:25.475Z,20.75
2022-08-26T06:02:38.583Z,20.48
2022-08-26T06:05:48.705Z,21.85
2022-08-26T06:09:00.693Z,19.38
2022-08-26T06:12:12.910Z,19.95
2022-08-26T06:15:25.977Z,19.45
2022-08-26T06:18:39.030Z,21.02
2022-08-26T06:21:54.660Z,20.65
2022-08-26T06:25:23.640Z,24.80
2022-08-26T06:28:36.909Z,36.80
2022-08-26T06:31:47.067Z,13.77
2022-08-26T06:34:57.739Z,16.80
2022-08-26T06:38:09.319Z,21.15
2022-08-26T06:41:21.076Z,16.88
2022-08-26T06:44:32.855Z,14.70
2022-08-26T06:47:42.744Z,13.02
2022-08-26T06:51:02.055Z,20.38
2022-08-26T06:54:12.316Z,25.67
2022-08-26T06:57:22.864Z,31.30
2022-08-26T07:00:35.750Z,20.73
2022-08-26T07:03:46.758Z,18.70
2022-08-26T07:06:57.458Z,24.67
2022-08-26T07:10:08.984Z,22.70
2022-08-26T07:13:29.923Z,21.38
2022-08-26T07:16:42.568Z,21.15
2022-08-26T07:19:53.558Z,27.58
2022-08-26T07:23:03.849Z,24.42
2022-08-26T07:26:18.342Z,18.38
2022-08-26T07:29:30.020Z,17.70
2022-08-26T07:32:41.989Z,19.58
2022-08-26T07:35:52.418Z,34.28
2022-08-26T07:39:02.914Z,22.75
2022-08-26T07:42:16.055Z,18.98
2022-08-26T07:45:29.000Z,20.20
2022-08-26T07:48:41.311Z,18.40
2022-08-26T07:51:56.819Z,11.00
2022-08-26T07:55:09.410Z,19.95
2022-08-26T07:58:20.581Z,17.90
2022-08-26T08:01:33.107Z,22.67
2022-08-26T08:04:44.805Z,18.05
2022-08-26T08:08:00.850Z,24.63
2022-08-26T08:11:28.686Z,16.65
2022-08-26T08:14:40.089Z,19.48
2022-08-26T08:17:51.693Z,17.83
2022-08-26T08:21:20.888Z,25.10
2022-08-26T08:24:33.219Z,15.35
2022-08-26T08:27:46.303Z,16.80
2022-08-26T08:30:57.808Z,18.50
2022-08-26T08:34:08.192Z,14.82
2022-08-26T08:37:20.082Z,14.23
2022-08-26T08:40:31.559Z,17.75
2022-08-26T08:43:46.385Z,13.32
2022-08-26T08:47:00.789Z,23.33
2022-08-26T08:50:21.331Z,13.50
2022-08-26T08:53:36.930Z,17.52
2022-08-26T08:56:52.976Z,15.68
2022-08-26T09:00:09.233Z,17.70
2022-08-26T09:21:58.612Z,19.38
2022-08-26T09:25:11.894Z,14.70
2022-08-26T09:28:25.344Z,17.20
2022-08-26T09:31:38.848Z,15.82
2022-08-26T09:34:58.373Z,20.13
2022-08-26T09:38:26.768Z,19.38
2022-08-26T09:41:38.279Z,23.58
2022-08-26T09:44:59.637Z,18.73
2022-08-26T09:48:10.348Z,13.80
2022-08-26T09:51:31.922Z,21.27
2022-08-26T09:54:45.386Z,11.90
2022-08-26T09:57:59.923Z,19.45
2022-08-26T10:01:25.569Z,20.25
2022-08-26T10:04:36.035Z,19.38
2022-08-26T10:07:49.046Z,22.58
2022-08-26T10:11:04.414Z,23.70
2022-08-26T10:14:20.271Z,27.02
2022-08-26T10:17:34.971Z,15.52
2022-08-26T10:20:54.859Z,23.88
2022-08-26T10:24:08.525Z,24.02
2022-08-26T10:27:31.434Z,21.02
2022-08-26T10:30:52.170Z,17.50
2022-08-26T10:34:02.565Z,18.75
2022-08-26T10:37:17.413Z,14.43
2022-08-26T10:40:36.336Z,26.90
2022-08-26T10:43:53.466Z,20.73
2022-08-26T10:47:10.931Z,15.32
2022-08-26T10:50:23.144Z,18.23
2022-08-26T10:53:44.747Z,25.83
2022-08-26T10:57:01.917Z,50.25
2022-08-26T11:00:38.043Z,26.55
2022-08-26T11:04:00.258Z,21.75
2022-08-26T11:07:31.628Z,13.95
2022-08-26T11:11:03.097Z,17.55
2022-08-26T11:14:40.570Z,21.65
2022-08-26T11:18:00.725Z,19.77
2022-08-26T11:21:50.731Z,20.40
2022-08-26T11:25:05.380Z,22.40
2022-08-26T11:28:34.143Z,20.65
2022-08-26T11:31:56.792Z,22.30
2022-08-26T11:35:11.203Z,22.23
2022-08-26T11:38:29.248Z,22.83
2022-08-26T11:41:44.458Z,17.77
2022-08-26T11:44:57.934Z,23.45
2022-08-26T11:48:16.353Z,22.95
2022-08-26T11:51:28.065Z,16.40
2022-08-26T11:54:39.494Z,14.65
2022-08-26T11:57:54.119Z,19.33
2022-08-26T12:01:09.573Z,22.60
2022-08-26T12:04:29.259Z,20.40
2022-08-26T12:07:43.081Z,16.45
2022-08-26T12:11:05.183Z,17.17
2022-08-26T12:14:19.618Z,20.10
2022-08-26T12:17:29.969Z,19.35
2022-08-26T12:20:51.306Z,22.25
2022-08-26T12:24:04.526Z,22.88
2022-08-26T12:27:19.472Z,33.10
2022-08-26T12:30:29.508Z,17.63
2022-08-26T12:33:41.694Z,17.00
2022-08-26T12:36:56.570Z,15.75
2022-08-26T12:40:37.106Z,15.27
2022-08-26T12:43:47.472Z,18.65
2022-08-26T12:47:03.441Z,18.50
2022-08-26T12:50:21.686Z,13.07
2022-08-26T12:53:33.246Z,18.25
2022-08-26T12:56:44.658Z,17.50
2022-08-26T12:59:54.809Z,22.85
2022-08-26T13:03:05.129Z,12.32
2022-08-26T13:06:27.830Z,20.90
2022-08-26T13:09:38.421Z,20.35
2022-08-26T13:12:50.200Z,17.65
2022-08-26T13:16:01.014Z,19.67
2022-08-26T13:19:13.920Z,19.52
2022-08-26T13:22:25.563Z,19.85
2022-08-26T13:25:36.024Z,19.63
2022-08-26T13:28:53.283Z,25.13
2022-08-26T13:32:12.456Z,14.63
2022-08-26T13:38:48.294Z,23.13
2022-08-26T13:42:02.496Z,16.15
2022-08-26T13:45:14.409Z,16.23
2022-08-26T13:48:24.484Z,19.42
2022-08-26T13:51:35.285Z,17.17
2022-08-26T13:54:45.565Z,19.42
2022-08-26T13:57:56.207Z,17.48
2022-08-26T14:01:08.996Z,19.42
2022-08-26T14:04:23.276Z,23.98
2022-08-26T14:07:37.782Z,19.08
2022-08-26T14:14:03.706Z,15.30
2022-08-26T14:17:19.209Z,22.42
2022-08-26T14:20:31.624Z,18.70
2022-08-26T14:23:42.608Z,24.30
2022-08-26T14:26:52.763Z,26.45
2022-08-26T14:30:02.817Z,24.80
2022-08-26T14:33:16.590Z,18.42
2022-08-26T14:36:31.319Z,17.30
2022-08-26T14:39:41.517Z,20.02
2022-08-26T14:42:54.486Z,19.48
2022-08-26T14:46:05.430Z,21.60
2022-08-26T14:49:19.817Z,23.25
2022-08-26T14:52:50.049Z,23.80
2022-08-26T14:56:00.747Z,15.27
2022-08-26T14:59:11.569Z,20.02
2022-08-26T15:02:32.881Z,22.70
2022-08-26T15:05:47.949Z,16.75
2022-08-26T15:08:58.765Z,14.73
2022-08-26T15:12:09.025Z,12.93
2022-08-26T15:15:19.595Z,15.15
2022-08-26T15:18:30.105Z,19.50
2022-08-26T15:21:41.336Z,11.70
2022-08-26T15:24:53.681Z,11.15
2022-08-26T15:28:06.161Z,11.40
2022-08-26T15:31:16.850Z,15.95
2022-08-26T15:34:27.517Z,12.07
2022-08-26T15:37:39.966Z,8.82
2022-08-26T15:40:50.772Z,10.35
2022-08-26T15:44:02.148Z,10.43
2022-08-26T15:47:14.530Z,8.25
2022-08-26T15:50:25.608Z,9.77
2022-08-26T15:53:37.108Z,7.97
2022-08-26T15:56:49.076Z,6.97
2022-08-26T15:59:59.048Z,8.55
2022-08-26T16:03:09.728Z,6.65
2022-08-26T16:06:22.325Z,8.50
2022-08-26T16:09:34.113Z,7.78
2022-08-26T16:12:44.265Z,6.82
2022-08-26T16:15:54.253Z,8.18
2022-08-26T16:19:07.578Z,8.85
2022-08-26T16:22:18.052Z,7.68
2022-08-26T16:25:30.335Z,9.15
2022-08-26T16:28:40.982Z,7.85
2022-08-26T16:31:54.698Z,6.50
2022-08-26T16:35:05.572Z,7.90
2022-08-26T16:38:15.754Z,12.65
2022-08-26T16:41:29.931Z,8.38
2022-08-26T16:44:45.189Z,4.35
2022-08-26T16:47:55.605Z,13.70
2022-08-26T16:51:06.260Z,4.90
2022-08-26T16:54:16.495Z,6.13
2022-08-26T16:57:28.019Z,8.38
2022-08-26T17:00:39.157Z,6.07
2022-08-26T17:03:49.719Z,6.38
2022-08-26T17:07:00.873Z,7.22
2022-08-26T17:10:12.918Z,7.28
2022-08-26T17:13:35.147Z,6.97
2022-08-26T17:16:46.080Z,9.60
2022-08-26T17:19:57.020Z,6.78
2022-08-26T17:23:07.402Z,13.95
2022-08-26T17:26:17.978Z,10.77
2022-08-26T17:29:29.312Z,12.10
2022-08-26T17:32:39.493Z,11.88
2022-08-26T17:35:49.523Z,10.57
2022-08-26T17:39:00.247Z,11.23
2022-08-26T17:42:12.101Z,13.05
2022-08-26T17:45:23.773Z,12.43
2022-08-26T17:48:34.253Z,10.20
2022-08-26T17:51:44.315Z,12.27
2022-08-26T17:54:55.566Z,12.57
2022-08-26T17:58:07.138Z,13.65
2022-08-26T18:01:19.250Z,11.20
2022-08-26T18:04:29.654Z,11.52
2022-08-26T18:07:41.380Z,7.95
2022-08-26T18:10:54.040Z,8.38
2022-08-26T18:14:04.899Z,12.32
2022-08-26T18:17:17.502Z,11.35
2022-08-26T18:20:30.373Z,13.98
2022-08-26T18:23:40.529Z,11.57
2022-08-26T18:26:51.027Z,15.27
2022-08-26T18:30:01.968Z,15.88
2022-08-26T18:33:14.341Z,13.30
2022-08-26T18:36:28.536Z,12.57
2022-08-26T18:39:38.712Z,20.65
2022-08-26T18:42:53.943Z,14.82
2022-08-26T18:46:06.304Z,13.55
2022-08-26T18:49:20.817Z,13.10
2022-08-26T18:52:32.501Z,11.63
2022-08-26T18:55:42.561Z,12.20
2022-08-26T18:58:53.229Z,9.98
2022-08-26T19:02:03.798Z,12.95
2022-08-26T19:05:16.155Z,16.35
2022-08-26T19:08:26.743Z,10.18
2022-08-26T19:11:42.850Z,11.35
2022-08-26T19:14:53.762Z,11.57
2022-08-26T19:18:04.605Z,14.35
2022-08-26T19:21:16.404Z,12.05
2022-08-26T19:24:28.395Z,17.23
2022-08-26T19:27:38.830Z,10.38
2022-08-26T19:30:53.148Z,11.52
2022-08-26T19:34:05.261Z,13.13
2022-08-26T19:37:16.921Z,11.35
2022-08-26T19:40:28.351Z,12.45
2022-08-26T19:43:38.817Z,17.55
2022-08-26T19:46:51.850Z,14.23
2022-08-26T19:50:02.344Z,14.18
2022-08-26T19:53:15.360Z,16.15
2022-08-26T19:56:25.895Z,14.85
2022-08-26T19:59:36.461Z,13.43
2022-08-26T20:02:47.473Z,11.93
2022-08-26T20:05:57.959Z,12.38
2022-08-26T20:09:09.431Z,13.10
2022-08-26T20:12:19.827Z,16.98
2022-08-26T20:15:30.724Z,11.70
2022-08-26T20:18:59.809Z,14.57
2022-08-26T20:22:10.052Z,9.93
2022-08-26T20:25:22.455Z,11.50
2022-08-26T20:28:34.159Z,15.30
2022-08-26T20:31:44.743Z,12.02
2022-08-26T20:34:55.553Z,12.55
2022-08-26T20:38:07.309Z,10.07
2022-08-26T20:41:19.158Z,13.82
2022-08-26T20:44:29.759Z,13.75
2022-08-26T20:47:40.214Z,14.65
2022-08-26T20:50:50.693Z,9.63
2022-08-26T20:54:01.487Z,9.27
2022-08-26T20:57:14.446Z,11.70
2022-08-26T21:00:26.509Z,12.05
2022-08-26T21:03:39.428Z,13.55
2022-08-26T21:06:52.686Z,14.57
2022-08-26T21:10:03.781Z,13.43
2022-08-26T21:13:15.729Z,15.00
2022-08-26T21:16:27.126Z,13.63
2022-08-26T21:19:37.550Z,13.77
2022-08-26T21:22:47.861Z,14.10
2022-08-26T21:26:01.725Z,15.73
2022-08-26T21:29:14.686Z,14.05
2022-08-26T21:32:25.285Z,10.02
2022-08-26T21:35:35.741Z,11.88
2022-08-26T21:38:46.377Z,13.35
2022-08-26T21:41:57.830Z,13.75
2022-08-26T21:45:11.820Z,12.60
2022-08-26T21:48:22.826Z,15.32
2022-08-26T21:51:40.140Z,16.90
2022-08-26T21:54:50.678Z,14.13
2022-08-26T21:58:00.747Z,11.73
2022-08-26T22:01:14.222Z,15.18
2022-08-26T22:04:24.905Z,16.70
2022-08-26T22:07:35.175Z,16.80
2022-08-26T22:10:45.239Z,15.70
2022-08-26T22:13:56.830Z,16.10
2022-08-26T22:17:10.032Z,13.82
2022-08-26T22:20:20.548Z,16.67
2022-08-26T22:23:31.243Z,16.63
2022-08-26T22:26:41.646Z,17.67
2022-08-26T22:29:52.136Z,15.75
2022-08-26T22:33:05.196Z,19.88
2022-08-26T22:36:20.411Z,16.42
2022-08-26T22:39:31.080Z,14.88
2022-08-26T22:42:42.326Z,16.55
2022-08-26T22:46:09.461Z,25.02
2022-08-26T22:49:21.696Z,20.73
2022-08-26T22:52:31.948Z,16.35
2022-08-26T22:55:43.238Z,22.25
2022-08-26T22:58:53.333Z,20.40
2022-08-26T23:02:03.495Z,22.15
2022-08-26T23:05:15.195Z,17.48
2022-08-26T23:08:27.392Z,18.30
2022-08-26T23:11:39.736Z,23.83
2022-08-26T23:14:52.929Z,20.48
2022-08-26T23:18:03.596Z,25.50
2022-08-26T23:21:15.365Z,20.75
2022-08-26T23:24:25.593Z,21.92
2022-08-26T23:27:37.452Z,22.83
2022-08-26T23:30:48.750Z,22.30
2022-08-26T23:34:16.606Z,23.63
2022-08-26T23:37:32.389Z,24.23
2022-08-26T23:40:42.822Z,21.20
2022-08-26T23:43:53.334Z,20.30
2022-08-26T23:47:04.809Z,20.85
2022-08-26T23:50:15.494Z,27.63
2022-08-26T23:53:26.294Z,26.02
2022-08-26T23:56:36.725Z,23.70
2022-08-26T23:59:47.069Z,22.83
